FNHU/NOV METAR and TAF weather

Enter ICAO airport designator
Station Type Date Time Source
FNHU METAR 2022/12/05 14:00 UTC NOAA

FNHU 051400Z 28004KT 9999 BKN014 24/19 Q1018


Station Type Date Time Source
FNHU Decoded METAR 2022/12/05 14:00 UTC NOAA

Huambo Nova Lisboa , Angola (FNHU) 12-48S 015-45E 1701M
Dec 05, 2022 - 09:00 AM EST / 2022.12.05 1400 UTC
Wind: from the W (280 degrees) at 5 MPH (4 KT):0
Visibility: greater than 7 mile(s):0
Sky conditions: mostly cloudy
Temperature: 75 F (24 C)
Dew Point: 66 F (19 C)
Relative Humidity: 73%
Pressure (altimeter): 30.06 in. Hg (1018 hPa)
ob: FNHU 051400Z 28004KT 9999 BKN014 24/19 Q1018
cycle: 14

Station Type Date Time Source
FNHU TAF 2022/12/05 12:00 UTC NOAA

TAF FNHU 051100Z 0512/0524 VRB03KT 9999 BKN020
BECMG 0514/0518 4000 TSRA FEW012CB

Example: see airport list